MET'MAP v2.0
soon released !

Expected late october,
this new version will be
more efficient, smarter,
and hosted on a brand new
server x3 powerfull...
...and still free !


Not compatible ?
Try the mobile version !

LOG IN : | Subscribe | Disclaimer | Who is Orbifly ? |
ICAO code :
Legend : VFR Marginal VFR IFR Intensive IFR Very Intensive IFR
Visi :
Ceiling :
>= 8 km
>= 3000ft
5 to 8 km
1000 to 3000 ft
1500m to 5 km
500 to 1000 ft
800 to 1500m
200 to 500 ft
< 800m
< 200 ft

METAR - ETIC Grafenwohr Army Air Field - 27 May 2020 12:14 UTC
Data Sources :     NOAA   


- Airport Elevation : 1363 ft
- No reported NOTAMs.


ETIC - Grafenwohr Army Air Field

Latest METAR recorded : 2015/08/11 07:58 ETIC 110758Z AUTO M 9999 CLR 24/17 A3000 RMK AO2 SLP140 T02430166 $
TAF AMD TAF ETIC
Valid from the 27 at 08:00 until the 28 at 08:00 UTC


270835Z 2708/2808 VRB03KT 9999 BKN065 QNH3050INS
BECMG 2717/2718 VRB06KT 8000 BR BKN050 QNH3045INS
TEMPO 2801/2805 3200 BR BKN015 TX18/2715Z TN05/2803Z

Source NOAA


MET'MAP, your aeronautical weather chart ! - Copyright ORBIFLY December 2007

Programming & Development : Alexandra Zaïnal
Co-Developer : Marc-Olivier Méhu
Technical & hardware support : Manuel Goepfert
Concept & Financing : Baudouin d'Aumeries